Aérodrome :
LOGIN :

S'inscrire | Disclaimer

   EN    FR    IT 

 










Légende :    VFR   VFR Marginal   IFR   IFR Intensif   IFR Très Intensif
Visi : 
Plafond : 
>= 8 km
>= 3000ft
5 à 8 km
1000 à 3000 ft
1500m à 5 km
500 à 1000 ft
800 à 1500m
200 à 500 ft
< 800m
< 200 ft
Symboles :   Orages  Brouillard  Fortes neiges  Fortes précipitations  Vent > 20 kt
SIGMETs :   Divers  Orages  Givrage  Turbulence  Onde Orograph.  Cendres Volcan.






- Altitude de l'aérodrome : 203 ft
- Code IATA : XMJ


LFBM - Mont-De-Marsan

DERNIER METAR :
  • 241400Z AUTO 27017KT 9999 -RA FEW017/// SCT042/// BKN049/// ///TCU 09/07 Q1008 TEMPO 3000 SHRA

METARs EXPIRÉS :
  • 241330Z AUTO 26017G31KT 7000 -RA FEW015/// SCT043/// BKN049/// ///TCU 09/07 Q1009 TEMPO 3000 SHRA BECMG 22012KT
  • 241300Z AUTO 26014KT 220V280 9999 SCT015/// SCT021/// BKN030/// ///CB 10/08 Q1009 TEMPO 3000 SHRA
  • 241230Z AUTO 24011KT 9999 SCT015/// BKN029/// BKN066/// ///TCU 10/08 Q1009 TEMPO 3000 SHRA
  • 241200Z AUTO 22011KT 180V250 9999 SCT016/// BKN026/// BKN046/// ///CB 09/07 Q1009 TEMPO 3000 SHRA
  • 241130Z AUTO 22009KT 180V260 9999 BKN011/// BKN016/// BKN021/// ///TCU 09/08 Q1009 TEMPO 3000 SHRA BKN015TCU

Prévision TAF périmée.



MET'MAP, la Météo Aéronautique d'un coup d'oeil ! - Copyright ORBIFLY Décembre 2007 - Disclaimer

ORBIFLY MET'MAP TEAM :

Programmation & Développement : Alexandra Zaïnal
Sur une idée originale de : Baudouin d'Aumeries
Assistance à la programmation : Marc-Olivier Méhu
Soutien technique & logistique : Manuel Goepfert

Contact : metmap@orbifly.com




SOURCES & CREDITS :

   NOAA